sensor_id;sensor_type;location;lat;lon;timestamp;temperature;humidity
18998;DHT22;9632;51.018;4.284;2024-03-06T00:02:23;10.20;99.90
18998;DHT22;9632;51.018;4.284;2024-03-06T00:04:49;10.20;99.90
18998;DHT22;9632;51.018;4.284;2024-03-06T00:07:14;10.20;99.90
18998;DHT22;9632;51.018;4.284;2024-03-06T00:09:40;10.20;99.90
18998;DHT22;9632;51.018;4.284;2024-03-06T00:12:06;10.10;99.90
18998;DHT22;9632;51.018;4.284;2024-03-06T00:14:32;10.10;99.90
18998;DHT22;9632;51.018;4.284;2024-03-06T00:16:58;10.10;99.90
18998;DHT22;9632;51.018;4.284;2024-03-06T00:19:23;10.10;99.90
18998;DHT22;9632;51.018;4.284;2024-03-06T00:21:49;10.10;99.90
18998;DHT22;9632;51.018;4.284;2024-03-06T00:24:16;10.00;99.90
18998;DHT22;9632;51.018;4.284;2024-03-06T00:26:45;10.00;99.90
18998;DHT22;9632;51.018;4.284;2024-03-06T00:29:11;10.00;99.90
18998;DHT22;9632;51.018;4.284;2024-03-06T00:31:41;9.90;99.90
18998;DHT22;9632;51.018;4.284;2024-03-06T00:34:07;9.90;99.90
18998;DHT22;9632;51.018;4.284;2024-03-06T00:36:33;9.90;99.90
18998;DHT22;9632;51.018;4.284;2024-03-06T00:38:59;9.90;99.90
18998;DHT22;9632;51.018;4.284;2024-03-06T00:41:24;9.80;99.90
18998;DHT22;9632;51.018;4.284;2024-03-06T00:43:50;9.80;99.90
18998;DHT22;9632;51.018;4.284;2024-03-06T00:46:16;9.80;99.90
18998;DHT22;9632;51.018;4.284;2024-03-06T00:48:41;9.80;99.90
18998;DHT22;9632;51.018;4.284;2024-03-06T00:51:07;9.70;99.90
18998;DHT22;9632;51.018;4.284;2024-03-06T00:53:35;9.70;99.90
18998;DHT22;9632;51.018;4.284;2024-03-06T00:56:02;9.60;99.90
18998;DHT22;9632;51.018;4.284;2024-03-06T00:58:28;9.70;99.90
18998;DHT22;9632;51.018;4.284;2024-03-06T01:00:54;9.60;99.90
18998;DHT22;9632;51.018;4.284;2024-03-06T01:03:19;9.60;99.90
18998;DHT22;9632;51.018;4.284;2024-03-06T01:05:46;9.60;99.90
18998;DHT22;9632;51.018;4.284;2024-03-06T01:08:11;9.60;99.90
18998;DHT22;9632;51.018;4.284;2024-03-06T01:10:37;9.50;99.90
18998;DHT22;9632;51.018;4.284;2024-03-06T01:13:03;9.50;99.90
18998;DHT22;9632;51.018;4.284;2024-03-06T01:15:29;9.40;99.90
18998;DHT22;9632;51.018;4.284;2024-03-06T01:17:54;9.40;99.90
18998;DHT22;9632;51.018;4.284;2024-03-06T01:20:20;9.40;99.90
18998;DHT22;9632;51.018;4.284;2024-03-06T01:22:46;9.30;99.90
18998;DHT22;9632;51.018;4.284;2024-03-06T01:25:12;9.20;99.90
18998;DHT22;9632;51.018;4.284;2024-03-06T01:27:37;9.20;99.90
18998;DHT22;9632;51.018;4.284;2024-03-06T01:30:03;9.20;99.90
18998;DHT22;9632;51.018;4.284;2024-03-06T01:32:29;9.10;99.90
18998;DHT22;9632;51.018;4.284;2024-03-06T01:34:55;9.10;99.90
18998;DHT22;9632;51.018;4.284;2024-03-06T01:37:21;9.00;99.90
18998;DHT22;9632;51.018;4.284;2024-03-06T01:39:46;9.00;99.90
18998;DHT22;9632;51.018;4.284;2024-03-06T01:42:12;9.00;99.90
18998;DHT22;9632;51.018;4.284;2024-03-06T01:44:38;9.00;99.90
18998;DHT22;9632;51.018;4.284;2024-03-06T01:47:03;8.90;99.90
18998;DHT22;9632;51.018;4.284;2024-03-06T01:49:29;8.80;99.90
18998;DHT22;9632;51.018;4.284;2024-03-06T01:51:57;8.80;99.90
18998;DHT22;9632;51.018;4.284;2024-03-06T01:54:24;8.80;99.90
18998;DHT22;9632;51.018;4.284;2024-03-06T01:56:50;8.70;99.90
18998;DHT22;9632;51.018;4.284;2024-03-06T01:59:19;8.70;99.90
18998;DHT22;9632;51.018;4.284;2024-03-06T02:01:46;8.60;99.90
18998;DHT22;9632;51.018;4.284;2024-03-06T02:04:12;8.60;99.90
18998;DHT22;9632;51.018;4.284;2024-03-06T02:06:39;8.60;99.90
18998;DHT22;9632;51.018;4.284;2024-03-06T02:09:05;8.50;99.90
18998;DHT22;9632;51.018;4.284;2024-03-06T02:11:32;8.50;99.90
18998;DHT22;9632;51.018;4.284;2024-03-06T02:13:58;8.40;99.90
18998;DHT22;9632;51.018;4.284;2024-03-06T02:16:24;8.40;99.90
18998;DHT22;9632;51.018;4.284;2024-03-06T02:18:56;8.40;99.90
18998;DHT22;9632;51.018;4.284;2024-03-06T02:21:25;8.30;99.90
18998;DHT22;9632;51.018;4.284;2024-03-06T02:23:51;8.30;99.90
18998;DHT22;9632;51.018;4.284;2024-03-06T02:26:18;8.20;99.90
18998;DHT22;9632;51.018;4.284;2024-03-06T02:29:02;8.20;99.90
18998;DHT22;9632;51.018;4.284;2024-03-06T02:31:27;8.20;99.90
18998;DHT22;9632;51.018;4.284;2024-03-06T02:33:53;8.10;99.90
18998;DHT22;9632;51.018;4.284;2024-03-06T02:36:19;8.10;99.90
18998;DHT22;9632;51.018;4.284;2024-03-06T02:38:45;8.10;99.90
18998;DHT22;9632;51.018;4.284;2024-03-06T02:41:11;8.00;99.90
18998;DHT22;9632;51.018;4.284;2024-03-06T02:43:39;8.00;99.90
18998;DHT22;9632;51.018;4.284;2024-03-06T02:46:05;7.90;99.90
18998;DHT22;9632;51.018;4.284;2024-03-06T02:48:31;7.90;99.90
18998;DHT22;9632;51.018;4.284;2024-03-06T02:50:57;7.90;99.90
18998;DHT22;9632;51.018;4.284;2024-03-06T02:53:23;7.80;99.90
18998;DHT22;9632;51.018;4.284;2024-03-06T02:55:49;7.80;99.90
18998;DHT22;9632;51.018;4.284;2024-03-06T02:58:15;7.70;99.90
18998;DHT22;9632;51.018;4.284;2024-03-06T03:00:42;7.70;99.90
18998;DHT22;9632;51.018;4.284;2024-03-06T03:03:08;7.70;99.90
18998;DHT22;9632;51.018;4.284;2024-03-06T03:05:33;7.60;99.90
18998;DHT22;9632;51.018;4.284;2024-03-06T03:07:59;7.60;99.90
18998;DHT22;9632;51.018;4.284;2024-03-06T03:10:25;7.50;99.90
18998;DHT22;9632;51.018;4.284;2024-03-06T03:12:52;7.50;99.90
18998;DHT22;9632;51.018;4.284;2024-03-06T03:15:17;7.50;99.90
18998;DHT22;9632;51.018;4.284;2024-03-06T03:17:43;7.40;99.90
18998;DHT22;9632;51.018;4.284;2024-03-06T03:20:09;7.40;99.90
18998;DHT22;9632;51.018;4.284;2024-03-06T03:22:41;7.40;99.90
18998;DHT22;9632;51.018;4.284;2024-03-06T03:25:08;7.30;99.90
18998;DHT22;9632;51.018;4.284;2024-03-06T03:27:33;7.30;99.90
18998;DHT22;9632;51.018;4.284;2024-03-06T03:29:59;7.30;99.90
18998;DHT22;9632;51.018;4.284;2024-03-06T03:32:25;7.30;99.90
18998;DHT22;9632;51.018;4.284;2024-03-06T03:34:50;7.20;99.90
18998;DHT22;9632;51.018;4.284;2024-03-06T03:37:16;7.20;99.90
18998;DHT22;9632;51.018;4.284;2024-03-06T03:39:44;7.20;99.90
18998;DHT22;9632;51.018;4.284;2024-03-06T03:42:10;7.20;99.90
18998;DHT22;9632;51.018;4.284;2024-03-06T03:44:35;7.10;99.90
18998;DHT22;9632;51.018;4.284;2024-03-06T03:47:01;7.10;99.90
18998;DHT22;9632;51.018;4.284;2024-03-06T03:49:27;7.00;99.90
18998;DHT22;9632;51.018;4.284;2024-03-06T03:51:53;7.00;99.90
18998;DHT22;9632;51.018;4.284;2024-03-06T03:54:19;6.90;99.90
18998;DHT22;9632;51.018;4.284;2024-03-06T03:56:44;7.00;99.90
18998;DHT22;9632;51.018;4.284;2024-03-06T03:59:10;7.00;99.90
18998;DHT22;9632;51.018;4.284;2024-03-06T04:01:36;6.90;99.90
18998;DHT22;9632;51.018;4.284;2024-03-06T04:04:02;6.90;99.90
18998;DHT22;9632;51.018;4.284;2024-03-06T04:06:27;6.80;99.90
18998;DHT22;9632;51.018;4.284;2024-03-06T04:08:53;6.80;99.90
18998;DHT22;9632;51.018;4.284;2024-03-06T04:11:19;6.80;99.90
18998;DHT22;9632;51.018;4.284;2024-03-06T04:13:44;6.70;99.90
18998;DHT22;9632;51.018;4.284;2024-03-06T04:16:16;6.70;99.90
18998;DHT22;9632;51.018;4.284;2024-03-06T04:18:42;6.70;99.90
18998;DHT22;9632;51.018;4.284;2024-03-06T04:21:08;6.60;99.90
18998;DHT22;9632;51.018;4.284;2024-03-06T04:23:36;6.70;99.90
18998;DHT22;9632;51.018;4.284;2024-03-06T04:26:02;6.60;99.90
18998;DHT22;9632;51.018;4.284;2024-03-06T04:28:29;6.50;99.90
18998;DHT22;9632;51.018;4.284;2024-03-06T04:30:57;6.50;99.90
18998;DHT22;9632;51.018;4.284;2024-03-06T04:33:23;6.50;99.90
18998;DHT22;9632;51.018;4.284;2024-03-06T04:35:49;6.40;99.90
18998;DHT22;9632;51.018;4.284;2024-03-06T04:38:14;6.40;99.90
18998;DHT22;9632;51.018;4.284;2024-03-06T04:40:40;6.40;99.90
18998;DHT22;9632;51.018;4.284;2024-03-06T04:43:06;6.40;99.90
18998;DHT22;9632;51.018;4.284;2024-03-06T04:45:32;6.40;99.90
18998;DHT22;9632;51.018;4.284;2024-03-06T04:47:58;6.40;99.90
18998;DHT22;9632;51.018;4.284;2024-03-06T04:50:24;6.40;99.90
18998;DHT22;9632;51.018;4.284;2024-03-06T04:52:50;6.30;99.90
18998;DHT22;9632;51.018;4.284;2024-03-06T04:55:15;6.30;99.90
18998;DHT22;9632;51.018;4.284;2024-03-06T04:57:45;6.40;99.90
18998;DHT22;9632;51.018;4.284;2024-03-06T05:00:13;6.30;99.90
18998;DHT22;9632;51.018;4.284;2024-03-06T05:02:39;6.30;99.90
18998;DHT22;9632;51.018;4.284;2024-03-06T05:05:06;6.30;99.90
18998;DHT22;9632;51.018;4.284;2024-03-06T05:07:33;6.20;99.90
18998;DHT22;9632;51.018;4.284;2024-03-06T05:10:00;6.20;99.90
18998;DHT22;9632;51.018;4.284;2024-03-06T05:12:26;6.20;99.90
18998;DHT22;9632;51.018;4.284;2024-03-06T05:14:53;6.20;99.90
18998;DHT22;9632;51.018;4.284;2024-03-06T05:17:18;6.20;99.90
18998;DHT22;9632;51.018;4.284;2024-03-06T05:19:45;6.20;99.90
18998;DHT22;9632;51.018;4.284;2024-03-06T05:22:11;6.20;99.90
18998;DHT22;9632;51.018;4.284;2024-03-06T05:24:37;6.20;99.90
18998;DHT22;9632;51.018;4.284;2024-03-06T05:27:03;6.10;99.90
18998;DHT22;9632;51.018;4.284;2024-03-06T05:29:29;6.20;99.90
18998;DHT22;9632;51.018;4.284;2024-03-06T05:31:54;6.10;99.90
18998;DHT22;9632;51.018;4.284;2024-03-06T05:34:24;6.20;99.90
18998;DHT22;9632;51.018;4.284;2024-03-06T05:36:50;6.10;99.90
18998;DHT22;9632;51.018;4.284;2024-03-06T05:39:15;6.00;99.90
18998;DHT22;9632;51.018;4.284;2024-03-06T05:41:43;6.10;99.90
18998;DHT22;9632;51.018;4.284;2024-03-06T05:44:09;6.00;99.90
18998;DHT22;9632;51.018;4.284;2024-03-06T05:46:35;6.00;99.90
18998;DHT22;9632;51.018;4.284;2024-03-06T05:49:02;6.00;99.90
18998;DHT22;9632;51.018;4.284;2024-03-06T05:51:28;6.00;99.90
18998;DHT22;9632;51.018;4.284;2024-03-06T05:53:54;6.00;99.90
18998;DHT22;9632;51.018;4.284;2024-03-06T05:56:19;5.90;99.90
18998;DHT22;9632;51.018;4.284;2024-03-06T05:58:46;6.00;99.90
18998;DHT22;9632;51.018;4.284;2024-03-06T06:01:15;5.90;99.90
18998;DHT22;9632;51.018;4.284;2024-03-06T06:03:44;5.90;99.90
18998;DHT22;9632;51.018;4.284;2024-03-06T06:06:10;5.90;99.90
18998;DHT22;9632;51.018;4.284;2024-03-06T06:08:35;6.00;99.90
18998;DHT22;9632;51.018;4.284;2024-03-06T06:11:04;6.00;99.90
18998;DHT22;9632;51.018;4.284;2024-03-06T06:13:30;6.00;99.90
18998;DHT22;9632;51.018;4.284;2024-03-06T06:15:58;6.00;99.90
18998;DHT22;9632;51.018;4.284;2024-03-06T06:18:23;6.00;99.90
18998;DHT22;9632;51.018;4.284;2024-03-06T06:20:49;6.00;99.90
18998;DHT22;9632;51.018;4.284;2024-03-06T06:23:15;6.00;99.90
18998;DHT22;9632;51.018;4.284;2024-03-06T06:25:40;6.10;99.90
18998;DHT22;9632;51.018;4.284;2024-03-06T06:28:06;6.10;99.90
18998;DHT22;9632;51.018;4.284;2024-03-06T06:30:32;6.10;99.90
18998;DHT22;9632;51.018;4.284;2024-03-06T06:32:57;6.10;99.90
18998;DHT22;9632;51.018;4.284;2024-03-06T06:35:23;6.00;99.90
18998;DHT22;9632;51.018;4.284;2024-03-06T06:37:50;6.20;99.90
18998;DHT22;9632;51.018;4.284;2024-03-06T06:40:16;6.20;99.90
18998;DHT22;9632;51.018;4.284;2024-03-06T06:42:45;6.20;99.90
18998;DHT22;9632;51.018;4.284;2024-03-06T06:45:18;6.20;99.90
18998;DHT22;9632;51.018;4.284;2024-03-06T06:47:45;6.20;99.90
18998;DHT22;9632;51.018;4.284;2024-03-06T06:50:11;6.30;99.90
18998;DHT22;9632;51.018;4.284;2024-03-06T06:52:41;6.40;99.90
18998;DHT22;9632;51.018;4.284;2024-03-06T06:55:07;6.40;99.90
18998;DHT22;9632;51.018;4.284;2024-03-06T06:57:34;6.40;99.90
18998;DHT22;9632;51.018;4.284;2024-03-06T07:00:01;6.50;99.90
18998;DHT22;9632;51.018;4.284;2024-03-06T07:02:36;6.50;99.90
18998;DHT22;9632;51.018;4.284;2024-03-06T07:05:02;6.50;99.90
18998;DHT22;9632;51.018;4.284;2024-03-06T07:07:30;6.50;99.90
18998;DHT22;9632;51.018;4.284;2024-03-06T07:09:55;6.60;99.90
18998;DHT22;9632;51.018;4.284;2024-03-06T07:12:21;6.60;99.90
18998;DHT22;9632;51.018;4.284;2024-03-06T07:14:47;6.70;99.90
18998;DHT22;9632;51.018;4.284;2024-03-06T07:17:13;6.80;99.90
18998;DHT22;9632;51.018;4.284;2024-03-06T07:19:38;7.00;99.90
18998;DHT22;9632;51.018;4.284;2024-03-06T07:22:05;7.10;99.90
18998;DHT22;9632;51.018;4.284;2024-03-06T07:24:31;7.30;99.90
18998;DHT22;9632;51.018;4.284;2024-03-06T07:26:56;7.40;99.90
18998;DHT22;9632;51.018;4.284;2024-03-06T07:29:22;7.50;99.90
18998;DHT22;9632;51.018;4.284;2024-03-06T07:31:48;7.60;99.90
18998;DHT22;9632;51.018;4.284;2024-03-06T07:34:14;7.80;99.90
18998;DHT22;9632;51.018;4.284;2024-03-06T07:36:43;7.90;99.90
18998;DHT22;9632;51.018;4.284;2024-03-06T07:39:08;8.00;99.90
18998;DHT22;9632;51.018;4.284;2024-03-06T07:41:34;8.20;99.90
18998;DHT22;9632;51.018;4.284;2024-03-06T07:44:00;8.40;99.90
18998;DHT22;9632;51.018;4.284;2024-03-06T07:46:26;8.50;99.90
18998;DHT22;9632;51.018;4.284;2024-03-06T07:48:54;8.70;99.90
18998;DHT22;9632;51.018;4.284;2024-03-06T07:51:20;8.90;99.90
18998;DHT22;9632;51.018;4.284;2024-03-06T07:53:46;9.10;99.90
18998;DHT22;9632;51.018;4.284;2024-03-06T07:56:11;9.30;99.90
18998;DHT22;9632;51.018;4.284;2024-03-06T07:58:38;9.40;99.90
18998;DHT22;9632;51.018;4.284;2024-03-06T08:01:04;9.50;99.90
18998;DHT22;9632;51.018;4.284;2024-03-06T08:03:29;9.70;99.90
18998;DHT22;9632;51.018;4.284;2024-03-06T08:05:55;9.90;99.90
18998;DHT22;9632;51.018;4.284;2024-03-06T08:08:21;10.00;99.90
18998;DHT22;9632;51.018;4.284;2024-03-06T08:10:47;10.20;99.90
18998;DHT22;9632;51.018;4.284;2024-03-06T08:13:13;10.30;99.90
18998;DHT22;9632;51.018;4.284;2024-03-06T08:15:39;10.40;99.90
18998;DHT22;9632;51.018;4.284;2024-03-06T08:18:06;10.50;99.90
18998;DHT22;9632;51.018;4.284;2024-03-06T08:20:32;10.50;99.90
18998;DHT22;9632;51.018;4.284;2024-03-06T08:22:58;10.60;99.90
18998;DHT22;9632;51.018;4.284;2024-03-06T08:25:24;10.70;99.90
18998;DHT22;9632;51.018;4.284;2024-03-06T08:27:50;10.80;99.90
18998;DHT22;9632;51.018;4.284;2024-03-06T08:30:15;10.90;99.90
18998;DHT22;9632;51.018;4.284;2024-03-06T08:32:41;11.00;99.90
18998;DHT22;9632;51.018;4.284;2024-03-06T08:35:12;11.10;99.90
18998;DHT22;9632;51.018;4.284;2024-03-06T08:37:41;11.20;99.90
18998;DHT22;9632;51.018;4.284;2024-03-06T08:40:08;11.30;99.90
18998;DHT22;9632;51.018;4.284;2024-03-06T08:42:48;11.30;99.90
18998;DHT22;9632;51.018;4.284;2024-03-06T08:45:14;11.40;99.90
18998;DHT22;9632;51.018;4.284;2024-03-06T08:47:40;11.40;99.90
18998;DHT22;9632;51.018;4.284;2024-03-06T08:50:06;11.50;99.90
18998;DHT22;9632;51.018;4.284;2024-03-06T08:52:36;11.50;99.90
18998;DHT22;9632;51.018;4.284;2024-03-06T08:55:02;11.50;99.90
18998;DHT22;9632;51.018;4.284;2024-03-06T08:57:36;11.60;99.90
18998;DHT22;9632;51.018;4.284;2024-03-06T09:00:02;11.70;99.90
18998;DHT22;9632;51.018;4.284;2024-03-06T09:02:28;11.80;99.90
18998;DHT22;9632;51.018;4.284;2024-03-06T09:04:54;11.90;99.90
18998;DHT22;9632;51.018;4.284;2024-03-06T09:07:20;11.90;99.90
18998;DHT22;9632;51.018;4.284;2024-03-06T09:09:49;12.00;99.90
18998;DHT22;9632;51.018;4.284;2024-03-06T09:12:17;12.10;99.90
18998;DHT22;9632;51.018;4.284;2024-03-06T09:14:43;12.20;99.90
18998;DHT22;9632;51.018;4.284;2024-03-06T09:17:09;12.20;99.90
18998;DHT22;9632;51.018;4.284;2024-03-06T09:19:35;12.30;99.90
18998;DHT22;9632;51.018;4.284;2024-03-06T09:22:01;12.30;99.90
18998;DHT22;9632;51.018;4.284;2024-03-06T09:24:28;12.40;99.90
18998;DHT22;9632;51.018;4.284;2024-03-06T09:26:54;12.50;99.90
18998;DHT22;9632;51.018;4.284;2024-03-06T09:29:20;12.60;99.90
18998;DHT22;9632;51.018;4.284;2024-03-06T09:31:46;12.70;99.90
18998;DHT22;9632;51.018;4.284;2024-03-06T09:34:15;12.70;99.90
18998;DHT22;9632;51.018;4.284;2024-03-06T09:36:45;12.70;99.90
18998;DHT22;9632;51.018;4.284;2024-03-06T09:39:15;12.70;99.90
18998;DHT22;9632;51.018;4.284;2024-03-06T09:41:49;12.70;99.90
18998;DHT22;9632;51.018;4.284;2024-03-06T09:44:16;12.80;99.90
18998;DHT22;9632;51.018;4.284;2024-03-06T09:46:46;12.90;99.90
18998;DHT22;9632;51.018;4.284;2024-03-06T09:49:18;12.90;99.90
18998;DHT22;9632;51.018;4.284;2024-03-06T09:51:45;12.90;99.90
18998;DHT22;9632;51.018;4.284;2024-03-06T09:54:15;13.00;99.90
18998;DHT22;9632;51.018;4.284;2024-03-06T09:56:42;13.00;99.90
18998;DHT22;9632;51.018;4.284;2024-03-06T09:59:09;13.10;99.90
18998;DHT22;9632;51.018;4.284;2024-03-06T10:01:39;13.20;99.90
18998;DHT22;9632;51.018;4.284;2024-03-06T10:04:26;13.30;99.90
18998;DHT22;9632;51.018;4.284;2024-03-06T10:06:56;13.40;99.90
18998;DHT22;9632;51.018;4.284;2024-03-06T10:09:22;13.40;99.90
18998;DHT22;9632;51.018;4.284;2024-03-06T10:11:49;13.40;99.90
18998;DHT22;9632;51.018;4.284;2024-03-06T10:14:15;13.50;99.90
18998;DHT22;9632;51.018;4.284;2024-03-06T10:16:57;13.50;99.90
18998;DHT22;9632;51.018;4.284;2024-03-06T10:19:25;13.50;99.90
18998;DHT22;9632;51.018;4.284;2024-03-06T10:21:53;13.60;99.90
18998;DHT22;9632;51.018;4.284;2024-03-06T10:24:20;13.70;99.90
18998;DHT22;9632;51.018;4.284;2024-03-06T10:26:47;13.70;99.90
18998;DHT22;9632;51.018;4.284;2024-03-06T10:29:19;13.70;99.90
18998;DHT22;9632;51.018;4.284;2024-03-06T10:32:03;13.70;99.90
18998;DHT22;9632;51.018;4.284;2024-03-06T10:34:29;13.80;99.90
18998;DHT22;9632;51.018;4.284;2024-03-06T10:36:59;13.80;99.90
18998;DHT22;9632;51.018;4.284;2024-03-06T10:39:25;14.00;99.90
18998;DHT22;9632;51.018;4.284;2024-03-06T10:41:55;14.00;99.90
18998;DHT22;9632;51.018;4.284;2024-03-06T10:44:25;14.10;99.90
18998;DHT22;9632;51.018;4.284;2024-03-06T10:47:03;14.10;99.90
18998;DHT22;9632;51.018;4.284;2024-03-06T10:49:30;14.10;99.90
18998;DHT22;9632;51.018;4.284;2024-03-06T10:52:00;14.10;99.90
18998;DHT22;9632;51.018;4.284;2024-03-06T10:54:30;14.10;99.90
18998;DHT22;9632;51.018;4.284;2024-03-06T10:56:58;14.10;99.90
18998;DHT22;9632;51.018;4.284;2024-03-06T10:59:28;14.10;99.90
18998;DHT22;9632;51.018;4.284;2024-03-06T11:01:58;14.10;99.90
18998;DHT22;9632;51.018;4.284;2024-03-06T11:04:29;14.20;99.90
18998;DHT22;9632;51.018;4.284;2024-03-06T11:06:58;14.20;99.90
18998;DHT22;9632;51.018;4.284;2024-03-06T11:09:28;14.30;99.90
18998;DHT22;9632;51.018;4.284;2024-03-06T11:11:54;14.40;99.90
18998;DHT22;9632;51.018;4.284;2024-03-06T11:14:22;14.40;99.90
18998;DHT22;9632;51.018;4.284;2024-03-06T11:17:04;14.40;99.90
18998;DHT22;9632;51.018;4.284;2024-03-06T11:28:28;14.20;99.90
18998;DHT22;9632;51.018;4.284;2024-03-06T11:33:19;14.30;99.90
18998;DHT22;9632;51.018;4.284;2024-03-06T11:39:03;14.40;99.90
18998;DHT22;9632;51.018;4.284;2024-03-06T11:41:31;14.50;99.90
18998;DHT22;9632;51.018;4.284;2024-03-06T11:43:59;14.50;99.90
18998;DHT22;9632;51.018;4.284;2024-03-06T11:46:45;14.40;99.90
18998;DHT22;9632;51.018;4.284;2024-03-06T11:49:17;14.50;99.90
18998;DHT22;9632;51.018;4.284;2024-03-06T11:51:49;14.60;99.90
18998;DHT22;9632;51.018;4.284;2024-03-06T11:54:15;14.60;99.90
18998;DHT22;9632;51.018;4.284;2024-03-06T11:56:43;14.70;99.90
18998;DHT22;9632;51.018;4.284;2024-03-06T11:59:10;14.70;99.90
18998;DHT22;9632;51.018;4.284;2024-03-06T12:01:37;14.60;99.90
18998;DHT22;9632;51.018;4.284;2024-03-06T12:04:03;14.60;99.90
18998;DHT22;9632;51.018;4.284;2024-03-06T12:06:31;14.60;99.90
18998;DHT22;9632;51.018;4.284;2024-03-06T12:08:58;14.70;99.90
18998;DHT22;9632;51.018;4.284;2024-03-06T12:11:24;14.80;99.90
18998;DHT22;9632;51.018;4.284;2024-03-06T12:13:51;14.90;99.90
18998;DHT22;9632;51.018;4.284;2024-03-06T12:16:17;14.80;99.90
18998;DHT22;9632;51.018;4.284;2024-03-06T12:18:43;14.80;99.90
18998;DHT22;9632;51.018;4.284;2024-03-06T12:21:10;14.80;99.90
18998;DHT22;9632;51.018;4.284;2024-03-06T12:23:36;14.90;99.90
18998;DHT22;9632;51.018;4.284;2024-03-06T12:26:06;14.90;99.90
18998;DHT22;9632;51.018;4.284;2024-03-06T12:28:34;14.90;99.90
18998;DHT22;9632;51.018;4.284;2024-03-06T12:31:02;14.80;99.90
18998;DHT22;9632;51.018;4.284;2024-03-06T12:33:28;14.80;99.90
18998;DHT22;9632;51.018;4.284;2024-03-06T12:36:05;14.80;99.90
18998;DHT22;9632;51.018;4.284;2024-03-06T12:38:31;14.80;99.90
18998;DHT22;9632;51.018;4.284;2024-03-06T12:40:57;14.90;99.90
18998;DHT22;9632;51.018;4.284;2024-03-06T12:43:24;14.90;99.90
18998;DHT22;9632;51.018;4.284;2024-03-06T12:45:50;15.00;99.90
18998;DHT22;9632;51.018;4.284;2024-03-06T12:48:16;15.00;99.90
18998;DHT22;9632;51.018;4.284;2024-03-06T12:50:47;15.00;99.90
18998;DHT22;9632;51.018;4.284;2024-03-06T12:53:20;15.00;99.90
18998;DHT22;9632;51.018;4.284;2024-03-06T12:55:46;14.90;99.90
18998;DHT22;9632;51.018;4.284;2024-03-06T12:58:15;15.00;99.90
18998;DHT22;9632;51.018;4.284;2024-03-06T13:00:41;14.90;99.90
18998;DHT22;9632;51.018;4.284;2024-03-06T13:03:07;14.90;99.90
18998;DHT22;9632;51.018;4.284;2024-03-06T13:05:32;14.90;99.90
18998;DHT22;9632;51.018;4.284;2024-03-06T13:07:59;14.90;99.90
18998;DHT22;9632;51.018;4.284;2024-03-06T13:10:27;14.90;99.90
18998;DHT22;9632;51.018;4.284;2024-03-06T13:12:53;14.80;99.90
18998;DHT22;9632;51.018;4.284;2024-03-06T13:15:19;14.80;99.90
18998;DHT22;9632;51.018;4.284;2024-03-06T13:17:44;14.70;99.90
18998;DHT22;9632;51.018;4.284;2024-03-06T13:20:10;14.70;99.90
18998;DHT22;9632;51.018;4.284;2024-03-06T13:22:39;14.70;99.90
18998;DHT22;9632;51.018;4.284;2024-03-06T13:25:05;14.70;99.90
18998;DHT22;9632;51.018;4.284;2024-03-06T13:27:31;14.70;99.90
18998;DHT22;9632;51.018;4.284;2024-03-06T13:29:57;14.70;99.90
18998;DHT22;9632;51.018;4.284;2024-03-06T13:32:24;14.70;99.90
18998;DHT22;9632;51.018;4.284;2024-03-06T13:34:49;14.70;99.90
18998;DHT22;9632;51.018;4.284;2024-03-06T13:37:18;14.70;99.90
18998;DHT22;9632;51.018;4.284;2024-03-06T13:39:43;14.60;99.90
18998;DHT22;9632;51.018;4.284;2024-03-06T13:42:09;14.60;99.90
18998;DHT22;9632;51.018;4.284;2024-03-06T13:44:36;14.50;99.90
18998;DHT22;9632;51.018;4.284;2024-03-06T13:47:02;14.50;99.90
18998;DHT22;9632;51.018;4.284;2024-03-06T13:49:40;14.50;99.90
18998;DHT22;9632;51.018;4.284;2024-03-06T13:52:08;14.40;99.90
18998;DHT22;9632;51.018;4.284;2024-03-06T13:54:39;14.50;99.90
18998;DHT22;9632;51.018;4.284;2024-03-06T13:57:09;14.50;99.90
18998;DHT22;9632;51.018;4.284;2024-03-06T13:59:35;14.50;99.90
18998;DHT22;9632;51.018;4.284;2024-03-06T14:02:01;14.50;99.90
18998;DHT22;9632;51.018;4.284;2024-03-06T14:04:28;14.50;99.90
18998;DHT22;9632;51.018;4.284;2024-03-06T14:06:54;14.50;99.90
18998;DHT22;9632;51.018;4.284;2024-03-06T14:09:20;14.50;99.90
18998;DHT22;9632;51.018;4.284;2024-03-06T14:11:45;14.50;99.90
18998;DHT22;9632;51.018;4.284;2024-03-06T14:14:11;14.50;99.90
18998;DHT22;9632;51.018;4.284;2024-03-06T14:16:39;14.50;99.90
18998;DHT22;9632;51.018;4.284;2024-03-06T14:19:05;14.50;99.90
18998;DHT22;9632;51.018;4.284;2024-03-06T14:21:31;14.50;99.90
18998;DHT22;9632;51.018;4.284;2024-03-06T14:24:01;14.40;99.90
18998;DHT22;9632;51.018;4.284;2024-03-06T14:26:33;14.40;99.90
18998;DHT22;9632;51.018;4.284;2024-03-06T14:28:59;14.50;99.90
18998;DHT22;9632;51.018;4.284;2024-03-06T14:31:25;14.40;99.90
18998;DHT22;9632;51.018;4.284;2024-03-06T14:33:51;14.40;99.90
18998;DHT22;9632;51.018;4.284;2024-03-06T14:36:17;14.40;99.90
18998;DHT22;9632;51.018;4.284;2024-03-06T14:38:43;14.40;99.90
18998;DHT22;9632;51.018;4.284;2024-03-06T14:41:10;14.40;99.90
18998;DHT22;9632;51.018;4.284;2024-03-06T14:43:36;14.40;99.90
18998;DHT22;9632;51.018;4.284;2024-03-06T14:46:07;14.40;99.90
18998;DHT22;9632;51.018;4.284;2024-03-06T14:48:34;14.50;99.90
18998;DHT22;9632;51.018;4.284;2024-03-06T14:51:03;14.50;99.90
18998;DHT22;9632;51.018;4.284;2024-03-06T14:53:29;14.50;99.90
18998;DHT22;9632;51.018;4.284;2024-03-06T14:55:55;14.40;99.90
18998;DHT22;9632;51.018;4.284;2024-03-06T14:58:21;14.40;99.90
18998;DHT22;9632;51.018;4.284;2024-03-06T15:00:48;14.30;99.90
18998;DHT22;9632;51.018;4.284;2024-03-06T15:03:14;14.40;99.90
18998;DHT22;9632;51.018;4.284;2024-03-06T15:05:39;14.30;99.90
18998;DHT22;9632;51.018;4.284;2024-03-06T15:08:06;14.30;99.90
18998;DHT22;9632;51.018;4.284;2024-03-06T15:10:31;14.40;99.90
18998;DHT22;9632;51.018;4.284;2024-03-06T15:12:58;14.40;99.90
18998;DHT22;9632;51.018;4.284;2024-03-06T15:15:24;14.30;99.90
18998;DHT22;9632;51.018;4.284;2024-03-06T15:17:49;14.30;99.90
18998;DHT22;9632;51.018;4.284;2024-03-06T15:20:15;14.30;99.90
18998;DHT22;9632;51.018;4.284;2024-03-06T15:22:43;14.40;99.90
18998;DHT22;9632;51.018;4.284;2024-03-06T15:25:12;14.30;99.90
18998;DHT22;9632;51.018;4.284;2024-03-06T15:27:39;14.30;99.90
18998;DHT22;9632;51.018;4.284;2024-03-06T15:30:07;14.20;99.90
18998;DHT22;9632;51.018;4.284;2024-03-06T15:32:36;14.20;99.90
18998;DHT22;9632;51.018;4.284;2024-03-06T15:35:03;14.20;99.90
18998;DHT22;9632;51.018;4.284;2024-03-06T15:37:29;14.20;99.90
18998;DHT22;9632;51.018;4.284;2024-03-06T15:39:56;14.20;99.90
18998;DHT22;9632;51.018;4.284;2024-03-06T15:42:22;14.10;99.90
18998;DHT22;9632;51.018;4.284;2024-03-06T15:44:49;14.10;99.90
18998;DHT22;9632;51.018;4.284;2024-03-06T15:47:17;14.10;99.90
18998;DHT22;9632;51.018;4.284;2024-03-06T15:49:43;14.10;99.90
18998;DHT22;9632;51.018;4.284;2024-03-06T15:52:12;14.10;99.90
18998;DHT22;9632;51.018;4.284;2024-03-06T15:54:39;14.10;99.90
18998;DHT22;9632;51.018;4.284;2024-03-06T15:57:05;14.10;99.90
18998;DHT22;9632;51.018;4.284;2024-03-06T15:59:36;14.10;99.90
18998;DHT22;9632;51.018;4.284;2024-03-06T16:02:02;14.10;99.90
18998;DHT22;9632;51.018;4.284;2024-03-06T16:04:28;14.10;99.90
18998;DHT22;9632;51.018;4.284;2024-03-06T16:06:58;14.00;99.90